Home > Products > Valid Products > TAF

000
FTUS42 KJAX 032320
TAFGNV
TAF
KGNV 032320Z 0400/0424 22010KT P6SM SCT050 BKN250
     FM040500 25008KT P6SM VCSH SCT030 BKN050
     FM040800 26006KT 5SM -SHRA VCTS SCT015 OVC035CB
      TEMPO 0408/0412 3SM TSRA SCT015 OVC025CB
     FM041600 29010KT P6SM SCT025 OVC050=



000
FTUS42 KJAX 032320
TAFCRG
TAF
KCRG 032320Z 0400/0424 24010KT P6SM SCT050 BKN250
     FM040500 25008KT P6SM VCSH SCT030 BKN050
     FM040900 26006KT 5SM -SHRA VCTS SCT015 OVC035CB
      TEMPO 0409/0413 3SM TSRA SCT015 OVC025CB
     FM041500 29010KT P6SM SCT025 OVC050=



000
FTUS42 KJAX 032320
TAFGNV
TAF
KGNV 032320Z 0400/0424 22010KT P6SM SCT050 BKN250
     FM040500 25008KT P6SM VCSH SCT030 BKN050
     FM040800 26006KT 5SM -SHRA VCTS SCT015 OVC035CB
      TEMPO 0408/0412 3SM TSRA SCT015 OVC025CB
     FM041600 29010KT P6SM SCT025 OVC050=



000
FTUS42 KJAX 032320
TAFCRG
TAF
KCRG 032320Z 0400/0424 24010KT P6SM SCT050 BKN250
     FM040500 25008KT P6SM VCSH SCT030 BKN050
     FM040900 26006KT 5SM -SHRA VCTS SCT015 OVC035CB
      TEMPO 0409/0413 3SM TSRA SCT015 OVC025CB
     FM041500 29010KT P6SM SCT025 OVC050=



000
FTUS42 KJAX 032320
TAFJAX
TAF
KJAX 032320Z 0400/0424 22010KT P6SM SCT050 BKN250
     FM040500 25008KT P6SM VCSH SCT030 BKN050
     FM040900 26006KT 5SM -SHRA VCTS SCT015 OVC035CB
      TEMPO 0409/0413 3SM TSRA SCT015 OVC025CB
     FM041400 29010KT P6SM SCT025 OVC050=



000
FTUS42 KJAX 032320
TAFSSI
TAF
KSSI 032320Z 0400/0424 24010KT P6SM SCT050 BKN250
     FM040200 25008KT P6SM VCSH SCT030 BKN050
     FM040500 26006KT 5SM -SHRA VCTS SCT015 OVC035CB
      TEMPO 0407/0411 3SM TSRA SCT015 OVC025CB
     FM041200 29010KT P6SM SCT025 OVC050=



000
FTUS42 KJAX 032320
TAFSSI
TAF
KSSI 032320Z 0400/0424 24010KT P6SM SCT050 BKN250
     FM040200 25008KT P6SM VCSH SCT030 BKN050
     FM040500 26006KT 5SM -SHRA VCTS SCT015 OVC035CB
      TEMPO 0407/0411 3SM TSRA SCT015 OVC025CB
     FM041200 29010KT P6SM SCT025 OVC050=



000
FTUS42 KJAX 032320
TAFJAX
TAF
KJAX 032320Z 0400/0424 22010KT P6SM SCT050 BKN250
     FM040500 25008KT P6SM VCSH SCT030 BKN050
     FM040900 26006KT 5SM -SHRA VCTS SCT015 OVC035CB
      TEMPO 0409/0413 3SM TSRA SCT015 OVC025CB
     FM041400 29010KT P6SM SCT025 OVC050=



000
FTUS42 KJAX 032225 AAA
TAFSSI
TAF AMD
KSSI 032225Z 0322/0418 22010KT P6SM VCTS BKN040CB
     FM040300 23005KT P6SM VCSH SCT040 BKN200
     FM040600 23005KT P6SM -RA VCTS SCT040CB OVC100
     FM040900 27009KT P6SM VCTS FEW015 SCT025CB BKN035
      TEMPO 0409/0413 5SM SHRA SCT015 BKN025
     FM041300 29010KT P6SM SCT025 OVC050=



000
FTUS42 KJAX 031914 AAA
TAFGNV
TAF AMD
KGNV 031914Z 0319/0418 25012G18KT P6SM FEW015 SCT035 BKN250
     FM032200 24010KT P6SM FEW040 SCT120 BKN250
     FM040300 23005KT P6SM VCSH SCT040 BKN200
     FM041100 27009KT P6SM VCTS FEW015 SCT025CB BKN035
      TEMPO 0411/0415 5SM SHRA SCT015 BKN025
     FM041700 29010KT P6SM SCT025 OVC050=



000
FTUS42 KJAX 031914 AAA
TAFGNV
TAF AMD
KGNV 031914Z 0319/0418 25012G18KT P6SM FEW015 SCT035 BKN250
     FM032200 24010KT P6SM FEW040 SCT120 BKN250
     FM040300 23005KT P6SM VCSH SCT040 BKN200
     FM041100 27009KT P6SM VCTS FEW015 SCT025CB BKN035
      TEMPO 0411/0415 5SM SHRA SCT015 BKN025
     FM041700 29010KT P6SM SCT025 OVC050=



000
FTUS42 KJAX 031912 AAA
TAFJAX
TAF AMD
KJAX 031912Z 0319/0418 26012G16KT P6SM FEW045 SCT250
     FM032300 22012KT P6SM VCTS FEW025 BKN040CB
     FM040100 23005KT P6SM SCT040 BKN120
     FM040600 25007KT P6SM VCSH SCT030 BKN090
     FM040900 27009KT P6SM VCTS FEW015 SCT025CB BKN035
      TEMPO 0409/0413 5SM SHRA SCT015 BKN025
     FM041500 29010KT P6SM SCT025 OVC050=



000
FTUS42 KJAX 031912 AAA
TAFJAX
TAF AMD
KJAX 031912Z 0319/0418 26012G16KT P6SM FEW045 SCT250
     FM032300 22012KT P6SM VCTS FEW025 BKN040CB
     FM040100 23005KT P6SM SCT040 BKN120
     FM040600 25007KT P6SM VCSH SCT030 BKN090
     FM040900 27009KT P6SM VCTS FEW015 SCT025CB BKN035
      TEMPO 0409/0413 5SM SHRA SCT015 BKN025
     FM041500 29010KT P6SM SCT025 OVC050=



000
FTUS42 KJAX 031736
TAFSSI
TAF
KSSI 031736Z 0318/0418 27007KT P6SM FEW100 SCT180 BKN250
     FM032300 22010KT P6SM VCTS BKN040CB
     FM040300 23005KT P6SM VCSH SCT040 BKN200
     FM040600 23005KT P6SM -RA VCTS SCT040CB OVC100
     FM040900 27009KT P6SM VCTS FEW015 SCT025CB BKN035
      TEMPO 0409/0413 5SM SHRA SCT015 BKN025
     FM041300 29010KT P6SM SCT025 OVC050=



000
FTUS42 KJAX 031736
TAFGNV
TAF
KGNV 031736Z 0318/0418 28015G23KT P6SM VCTS FEW015 SCT035CB
     FM032000 24012KT P6SM FEW040 SCT120 BKN250
     FM040300 23005KT P6SM VCSH SCT040 BKN200
     FM041100 27009KT P6SM VCTS FEW015 SCT025CB BKN035
      TEMPO 0411/0415 5SM SHRA SCT015 BKN025
     FM041700 29010KT P6SM SCT025 OVC050=



000
FTUS42 KJAX 031736
TAFCRG
TAF
KCRG 031736Z 0318/0418 27010G16KT P6SM SCT035 BKN250
     FM032300 24011KT P6SM VCTS BKN040CB
     FM040100 25005KT P6SM SCT040 BKN120
     FM040600 25007KT P6SM VCSH SCT030 BKN090
     FM040900 27009KT P6SM VCTS FEW015 SCT025CB BKN035
      TEMPO 0409/0413 5SM SHRA SCT015 BKN025
     FM041500 29010KT P6SM SCT025 OVC050=



000
FTUS42 KJAX 031736
TAFJAX
TAF
KJAX 031736Z 0318/0418 24010G16KT P6SM FEW045 SCT070 BKN250
     FM032300 22012KT P6SM VCTS FEW025 BKN040CB
     FM040100 23005KT P6SM SCT040 BKN120
     FM040600 25007KT P6SM VCSH SCT030 BKN090
     FM040900 27009KT P6SM VCTS FEW015 SCT025CB BKN035
      TEMPO 0409/0413 5SM SHRA SCT015 BKN025
     FM041500 29010KT P6SM SCT025 OVC050=



000
FTUS42 KJAX 031736
TAFSSI
TAF
KSSI 031736Z 0318/0418 27007KT P6SM FEW100 SCT180 BKN250
     FM032300 22010KT P6SM VCTS BKN040CB
     FM040300 23005KT P6SM VCSH SCT040 BKN200
     FM040600 23005KT P6SM -RA VCTS SCT040CB OVC100
     FM040900 27009KT P6SM VCTS FEW015 SCT025CB BKN035
      TEMPO 0409/0413 5SM SHRA SCT015 BKN025
     FM041300 29010KT P6SM SCT025 OVC050=



000
FTUS42 KJAX 031736
TAFGNV
TAF
KGNV 031736Z 0318/0418 28015G23KT P6SM VCTS FEW015 SCT035CB
     FM032000 24012KT P6SM FEW040 SCT120 BKN250
     FM040300 23005KT P6SM VCSH SCT040 BKN200
     FM041100 27009KT P6SM VCTS FEW015 SCT025CB BKN035
      TEMPO 0411/0415 5SM SHRA SCT015 BKN025
     FM041700 29010KT P6SM SCT025 OVC050=



000
FTUS42 KJAX 031736
TAFCRG
TAF
KCRG 031736Z 0318/0418 27010G16KT P6SM SCT035 BKN250
     FM032300 24011KT P6SM VCTS BKN040CB
     FM040100 25005KT P6SM SCT040 BKN120
     FM040600 25007KT P6SM VCSH SCT030 BKN090
     FM040900 27009KT P6SM VCTS FEW015 SCT025CB BKN035
      TEMPO 0409/0413 5SM SHRA SCT015 BKN025
     FM041500 29010KT P6SM SCT025 OVC050=



000
FTUS42 KJAX 031736
TAFJAX
TAF
KJAX 031736Z 0318/0418 24010G16KT P6SM FEW045 SCT070 BKN250
     FM032300 22012KT P6SM VCTS FEW025 BKN040CB
     FM040100 23005KT P6SM SCT040 BKN120
     FM040600 25007KT P6SM VCSH SCT030 BKN090
     FM040900 27009KT P6SM VCTS FEW015 SCT025CB BKN035
      TEMPO 0409/0413 5SM SHRA SCT015 BKN025
     FM041500 29010KT P6SM SCT025 OVC050=



000
FTUS42 KJAX 031612 AAB
TAFSSI
TAF AMD
KSSI 031612Z 0316/0412 25011G19KT 2SM -TSRA BKN030CB
     FM031630 25012G20KT P6SM VCTS SCT025CB BKN060
     FM031800 22010KT P6SM VCTS BKN040CB
     FM040000 23005KT P6SM -RA VCTS SCT040CB OVC100=



000
FTUS42 KJAX 031612 AAB
TAFSSI
TAF AMD
KSSI 031612Z 0316/0412 25011G19KT 2SM -TSRA BKN030CB
     FM031630 25012G20KT P6SM VCTS SCT025CB BKN060
     FM031800 22010KT P6SM VCTS BKN040CB
     FM040000 23005KT P6SM -RA VCTS SCT040CB OVC100=



000
FTUS42 KJAX 031607 AAB
TAFCRG
TAF AMD
KCRG 031607Z 0316/0412 28013G18KT P6SM FEW035 SCT050 BKN070
     FM031800 25010G15KT P6SM SCT025 BKN050
     FM032000 24011KT P6SM VCTS BKN040CB
     FM040000 25005KT P6SM VCSH SCT040 BKN120=



000
FTUS42 KJAX 031607 AAB
TAFCRG
TAF AMD
KCRG 031607Z 0316/0412 28013G18KT P6SM FEW035 SCT050 BKN070
     FM031800 25010G15KT P6SM SCT025 BKN050
     FM032000 24011KT P6SM VCTS BKN040CB
     FM040000 25005KT P6SM VCSH SCT040 BKN120=



000
FTUS42 KJAX 031602 AAB
TAFJAX
TAF AMD
KJAX 031602Z 0316/0412 24014G24KT P6SM SCT025 BKN250
     FM031900 22012KT P6SM VCTS BKN040CB
     FM040000 23005KT P6SM VCSH SCT040 BKN120
     FM040600 25007KT P6SM SCT035 BKN100=



000
FTUS42 KJAX 031602 AAB
TAFJAX
TAF AMD
KJAX 031602Z 0316/0412 24014G24KT P6SM SCT025 BKN250
     FM031900 22012KT P6SM VCTS BKN040CB
     FM040000 23005KT P6SM VCSH SCT040 BKN120
     FM040600 25007KT P6SM SCT035 BKN100=



000
FTUS42 KJAX 031438 AAA
TAFSSI
TAF AMD
KSSI 031438Z 0315/0412 25011G19KT P6SM SCT015 BKN080
     FM031530 25012G20KT P6SM VCTS SCT025CB BKN060
     FM031800 22010KT P6SM VCTS BKN040CB
     FM040000 23005KT P6SM -RA VCTS SCT040CB OVC100=



000
FTUS42 KJAX 031314 AAA
TAFGNV
TAF AMD
KGNV 031314Z 0313/0412 24007KT P6SM FEW015 SCT035
     FM031400 25010KT P6SM VCSH SCT025 BKN050
     FM031800 24012KT P6SM VCTS BKN040CB
     FM040000 23005KT P6SM VCSH SCT040 BKN200=



000
FTUS42 KJAX 031314 AAA
TAFGNV
TAF AMD
KGNV 031314Z 0313/0412 24007KT P6SM FEW015 SCT035
     FM031400 25010KT P6SM VCSH SCT025 BKN050
     FM031800 24012KT P6SM VCTS BKN040CB
     FM040000 23005KT P6SM VCSH SCT040 BKN200=



000
FTUS42 KJAX 031312 AAA
TAFJAX
TAF AMD
KJAX 031312Z 0313/0412 24010KT P6SM SCT015 BKN200
     FM031400 24010KT P6SM VCSH SCT025 BKN050
     FM031900 22012KT P6SM VCTS BKN040CB
     FM040000 23005KT P6SM VCSH SCT040 BKN120=



000
FTUS42 KJAX 031312 AAA
TAFCRG
TAF AMD
KCRG 031312Z 0313/0412 24010KT P6SM SCT012 SCT080 BKN200
     FM031400 25010KT P6SM SCT025 BKN050
     FM031900 24011KT P6SM VCTS BKN040CB
     FM040000 25005KT P6SM VCSH SCT040 BKN120=



000
FTUS42 KJAX 031120
TAFCRG
TAF
KCRG 031120Z 0312/0412 24005KT P6SM SCT012 SCT080 BKN200
      TEMPO 0312/0314 6SM BR SCT007 BKN010
     FM031400 25010KT P6SM SCT025 BKN050
     FM031900 24011KT P6SM VCTS BKN040CB
     FM040000 25005KT P6SM VCSH SCT040 BKN120=



000
FTUS42 KJAX 031120
TAFSSI
TAF
KSSI 031120Z 0312/0412 23008KT P6SM SCT015 BKN080
     FM031400 25010KT P6SM VCSH SCT025 BKN080
     FM031800 22010KT P6SM VCTS BKN040CB
     FM040000 23005KT P6SM -RA VCTS SCT040CB OVC100=



000
FTUS42 KJAX 031120
TAFGNV
TAF
KGNV 031120Z 0312/0412 23005KT 6SM BR SCT010 SCT035
      TEMPO 0312/0314 5SM BR SCT007 BKN011
     FM031400 25010KT P6SM VCSH SCT025 BKN050
     FM031800 24012KT P6SM VCTS BKN040CB
     FM040000 23005KT P6SM VCSH SCT040 BKN200=



000
FTUS42 KJAX 031120
TAFJAX
TAF
KJAX 031120Z 0312/0412 24005KT P6SM SCT015 BKN200
      TEMPO 0312/0314 5SM BR SCT007 BKN011
     FM031400 24010KT P6SM VCSH SCT025 BKN050
     FM031900 22012KT P6SM VCTS BKN040CB
     FM040000 23005KT P6SM VCSH SCT040 BKN120=



000
FTUS42 KJAX 031018 AAA
TAFCRG
TAF AMD
KCRG 031018Z 0310/0406 23005KT P6SM FEW015 SCT080 BKN200
      TEMPO 0312/0314 BKN012
     FM031400 25010KT P6SM SCT035 BKN050
     FM031900 24011KT P6SM VCTS BKN040CB
     FM040000 25005KT P6SM VCSH SCT040 BKN120=



000
FTUS42 KJAX 030540
TAFGNV
TAF
KGNV 030540Z 0306/0406 25002KT P6SM BKN060 OVC200
     FM030900 23002KT 6SM BR SCT010
      TEMPO 0309/0312 4SM BR SCT006 BKN010
     FM031400 23010KT P6SM SCT035 BKN050
     FM031800 24012KT P6SM VCTS BKN040CB
     FM040000 23005KT P6SM VCSH SCT040 BKN200=



000
FTUS42 KJAX 030540
TAFCRG
TAF
KCRG 030540Z 0306/0406 19005KT P6SM FEW045 SCT060 OVC200
     FM030900 21005KT P6SM SCT015 BKN200
      TEMPO 0310/0314 BKN015
     FM031400 24010KT P6SM SCT035 BKN050
     FM031900 25011KT P6SM VCTS BKN040CB
     FM040000 25005KT P6SM VCSH SCT040 BKN120=



000
FTUS42 KJAX 030540
TAFJAX
TAF
KJAX 030540Z 0306/0406 19003KT P6SM SCT050 OVC200
     FM030900 21004KT P6SM SCT015 BKN200
      TEMPO 0310/0314 BKN015
     FM031400 24010KT P6SM SCT035 BKN050
     FM031900 22012KT P6SM VCTS BKN040CB
     FM040000 23005KT P6SM VCSH SCT040 BKN120=



000
FTUS42 KJAX 030540
TAFSSI
TAF
KSSI 030540Z 0306/0406 18010KT P6SM FEW008 SCT060 BKN200
     FM030900 21008KT P6SM FEW008 SCT015 BKN200
      TEMPO 0311/0314 BKN015
     FM031400 25010KT P6SM SCT025 BKN080
     FM031800 22010KT P6SM VCTS BKN040CB
     FM040000 23005KT P6SM -RA VCTS SCT040CB OVC100=



000
FTUS42 KJAX 030540
TAFSSI
TAF
KSSI 030540Z 0306/0406 18010KT P6SM FEW008 SCT060 BKN200
     FM030900 21008KT P6SM FEW008 SCT015 BKN200
      TEMPO 0311/0314 BKN015
     FM031400 25010KT P6SM SCT025 BKN080
     FM031800 22010KT P6SM VCTS BKN040CB
     FM040000 23005KT P6SM -RA VCTS SCT040CB OVC100=



000
FTUS42 KJAX 030540
TAFGNV
TAF
KGNV 030540Z 0306/0406 25002KT P6SM BKN060 OVC200
     FM030900 23002KT 6SM BR SCT010
      TEMPO 0309/0312 4SM BR SCT006 BKN010
     FM031400 23010KT P6SM SCT035 BKN050
     FM031800 24012KT P6SM VCTS BKN040CB
     FM040000 23005KT P6SM VCSH SCT040 BKN200=



000
FTUS42 KJAX 030540
TAFCRG
TAF
KCRG 030540Z 0306/0406 19005KT P6SM FEW045 SCT060 OVC200
     FM030900 21005KT P6SM SCT015 BKN200
      TEMPO 0310/0314 BKN015
     FM031400 24010KT P6SM SCT035 BKN050
     FM031900 25011KT P6SM VCTS BKN040CB
     FM040000 25005KT P6SM VCSH SCT040 BKN120=



000
FTUS42 KJAX 030540
TAFJAX
TAF
KJAX 030540Z 0306/0406 19003KT P6SM SCT050 OVC200
     FM030900 21004KT P6SM SCT015 BKN200
      TEMPO 0310/0314 BKN015
     FM031400 24010KT P6SM SCT035 BKN050
     FM031900 22012KT P6SM VCTS BKN040CB
     FM040000 23005KT P6SM VCSH SCT040 BKN120=



000
FTUS42 KJAX 030217 AAA
TAFGNV
TAF AMD
KGNV 030217Z 0302/0324 25005KT P6SM SCT060 BKN250
     FM030900 23004KT 5SM BR BKN010
     FM031400 25010KT P6SM SCT035 BKN050
     FM031800 22012KT P6SM VCTS BKN040CB=



000
FTUS42 KJAX 030217 AAB
TAFCRG
TAF AMD
KCRG 030217Z 0302/0324 19005KT P6SM SCT060 BKN150
     FM030900 21005KT P6SM BKN015
     FM031400 25010KT P6SM SCT035 BKN050
     FM031800 22012KT P6SM VCTS BKN040CB=



000
FTUS42 KJAX 030217 AAB
TAFCRG
TAF AMD
KCRG 030217Z 0302/0324 19005KT P6SM SCT060 BKN150
     FM030900 21005KT P6SM BKN015
     FM031400 25010KT P6SM SCT035 BKN050
     FM031800 22012KT P6SM VCTS BKN040CB=



000
FTUS42 KJAX 030216 AAB
TAFSSI
TAF AMD
KSSI 030216Z 0302/0324 19007KT P6SM SCT015 BKN050
      TEMPO 0302/0306 BKN015
     FM030900 21005KT P6SM BKN015
     FM031400 25010KT P6SM SCT035 BKN050
     FM031800 22012KT P6SM VCTS BKN040CB=



000
FTUS42 KJAX 030215 AAD
TAFJAX
TAF AMD
KJAX 030215Z 0302/0324 19005KT P6SM SCT060 BKN150
     FM030900 21005KT P6SM BKN015
     FM031400 25010KT P6SM SCT035 BKN050
     FM031800 22012KT P6SM VCTS BKN040CB=



000
FTUS42 KJAX 030011 AAA
TAFCRG
TAF AMD
KCRG 030011Z 0300/0324 14011KT P6SM VCTS SCT050CB BKN150 BKN250
     FM030300 19007KT P6SM SCT060 BKN250
     FM030900 21005KT P6SM BKN015
     FM031400 25010KT P6SM SCT035 BKN050
     FM031800 22012KT P6SM VCTS BKN040CB=



000
FTUS42 KJAX 030011 AAA
TAFCRG
TAF AMD
KCRG 030011Z 0300/0324 14011KT P6SM VCTS SCT050CB BKN150 BKN250
     FM030300 19007KT P6SM SCT060 BKN250
     FM030900 21005KT P6SM BKN015
     FM031400 25010KT P6SM SCT035 BKN050
     FM031800 22012KT P6SM VCTS BKN040CB=



000
FTUS42 KJAX 022331 AAB
TAFJAX
TAF AMD
KJAX 022331Z 0300/0324 14011KT P6SM VCTS SCT050CB BKN150 BKN250
     FM030200 19007KT P6SM SCT060 BKN250
     FM030900 21005KT P6SM BKN015
     FM031400 25010KT P6SM SCT035 BKN050
     FM031800 22012KT P6SM VCTS BKN040CB=



000
FTUS42 KJAX 022329 AAA
TAFSSI
TAF AMD
KSSI 022329Z 0223/0324 14011KT P6SM VCTS SCT050CB BKN150 BKN250
     FM030200 19007KT P6SM SCT060 BKN250
     FM030900 21005KT P6SM BKN015
     FM031400 25010KT P6SM SCT035 BKN050
     FM031800 22012KT P6SM VCTS BKN040CB=



000
FTUS42 KJAX 022329 AAA
TAFSSI
TAF AMD
KSSI 022329Z 0223/0324 14011KT P6SM VCTS SCT050CB BKN150 BKN250
     FM030200 19007KT P6SM SCT060 BKN250
     FM030900 21005KT P6SM BKN015
     FM031400 25010KT P6SM SCT035 BKN050
     FM031800 22012KT P6SM VCTS BKN040CB=



000
FTUS42 KJAX 022325 AAA
TAFJAX
TAF AMD
KJAX 022325Z 0223/0324 14011KT P6SM VCSH SCT050 SCT150 BKN250
     FM030300 19007KT P6SM SCT060 BKN250
     FM030900 21005KT P6SM BKN015
     FM031400 25010KT P6SM SCT035 BKN050
     FM031800 22012KT P6SM VCTS BKN040CB=



000
FTUS42 KJAX 022325 AAA
TAFJAX
TAF AMD
KJAX 022325Z 0223/0324 14011KT P6SM VCSH SCT050 SCT150 BKN250
     FM030300 19007KT P6SM SCT060 BKN250
     FM030900 21005KT P6SM BKN015
     FM031400 25010KT P6SM SCT035 BKN050
     FM031800 22012KT P6SM VCTS BKN040CB=



000
FTUS42 KJAX 022320
TAFCRG
TAF
KCRG 022320Z 0300/0324 14011KT P6SM SCT050 SCT150 BKN250
     FM030300 19007KT P6SM SCT060 BKN250
     FM030900 21005KT P6SM BKN015
     FM031400 25010KT P6SM SCT035 BKN050
     FM031800 22012KT P6SM VCTS BKN040CB=



000
FTUS42 KJAX 022320
TAFSSI
TAF
KSSI 022320Z 0300/0324 14011KT P6SM SCT050 SCT150 BKN250
     FM030300 19007KT P6SM SCT060 BKN250
     FM030900 21005KT P6SM BKN015
     FM031400 25010KT P6SM SCT035 BKN050
     FM031800 22012KT P6SM VCTS BKN040CB=



000
FTUS42 KJAX 022320
TAFJAX
TAF
KJAX 022320Z 0300/0324 14011KT P6SM SCT050 SCT150 BKN250
     FM030300 19007KT P6SM SCT060 BKN250
     FM030900 21005KT P6SM BKN015
     FM031400 25010KT P6SM SCT035 BKN050
     FM031800 22012KT P6SM VCTS BKN040CB=



000
FTUS42 KJAX 022320
TAFGNV
TAF
KGNV 022320Z 0300/0324 25009KT P6SM VCSH SCT050 SCT150 BKN250
     FM030200 22005KT P6SM SCT060 BKN250
     FM030900 23004KT 5SM BR BKN010
     FM031400 25010KT P6SM SCT035 BKN050
     FM031800 22012KT P6SM VCTS BKN040CB=



000
FTUS42 KJAX 022140 AAB
TAFCRG
TAF AMD
KCRG 022140Z 0222/0318 14011KT P6SM SCT050 BKN250
     FM030100 19007KT P6SM SCT040 BKN100
     FM031500 25009KT P6SM BKN035 BKN250=



000
FTUS42 KJAX 022033 AAB
TAFJAX
TAF AMD
KJAX 022033Z 0221/0318 13011KT P6SM VCSH SCT040 BKN250
     FM022200 16010KT P6SM VCTS SCT050CB SCT150 BKN250
     FM030100 18007KT P6SM SCT040 BKN100
     FM031500 26010KT P6SM SCT025 BKN050=



000
FTUS42 KJAX 021956 AAA
TAFCRG
TAF AMD
KCRG 021956Z 0220/0318 13011KT P6SM SCT050 BKN250
     FM022300 15011KT P6SM VCTS SCT050CB SCT150 BKN250
     FM030100 18007KT P6SM SCT040 BKN100
     FM031500 25009KT P6SM BKN035 BKN250=



000
FTUS42 KJAX 021941 AAA
TAFSSI
TAF AMD
KSSI 021941Z 0220/0318 16012KT P6SM VCTS SCT035CB SCT100 BKN200
     FM030000 17010KT P6SM SCT040 BKN100
     FM031500 24008KT P6SM FEW040 SCT250=



000
FTUS42 KJAX 021720
TAFJAX
TAF
KJAX 021720Z 0218/0318 15006KT P6SM SCT030 BKN250
     FM022200 16010KT P6SM VCTS SCT050CB SCT150 BKN250
     FM030100 18007KT P6SM SCT040 BKN100
     FM031500 26010KT P6SM SCT025 BKN050=



000
FTUS42 KJAX 021720
TAFJAX
TAF
KJAX 021720Z 0218/0318 15006KT P6SM SCT030 BKN250
     FM022200 16010KT P6SM VCTS SCT050CB SCT150 BKN250
     FM030100 18007KT P6SM SCT040 BKN100
     FM031500 26010KT P6SM SCT025 BKN050=



000
FTUS42 KJAX 021720
TAFSSI
TAF
KSSI 021720Z 0218/0318 13007KT P6SM FEW050 SCT250
     FM022200 16010KT P6SM VCTS SCT035CB SCT100 BKN200
     FM030100 17010KT P6SM SCT040 BKN100
     FM031500 24008KT P6SM FEW040 SCT250=



000
FTUS42 KJAX 021720
TAFGNV
TAF
KGNV 021720Z 0218/0318 15007KT P6SM FEW045 SCT070 BKN100
     FM022000 21008KT P6SM VCTS BKN040CB OVC060
     FM030300 18003KT P6SM SCT050 BKN200=



000
FTUS42 KJAX 021720
TAFCRG
TAF
KCRG 021720Z 0218/0318 23011KT P6SM SCT050 BKN250
     FM022300 15011KT P6SM VCTS SCT050CB SCT150 BKN250
     FM030100 18007KT P6SM SCT040 BKN100
     FM031500 25009KT P6SM BKN035 BKN250=



000
FTUS42 KJAX 021622 AAB
TAFSSI
TAF AMD
KSSI 021622Z 0216/0312 15007KT P6SM SCT030 BKN250
     FM021900 15009KT P6SM VCSH SCT035 BKN200
     FM022200 16010KT P6SM VCTS SCT035CB SCT100 BKN200
     FM030100 17010KT P6SM SCT040 BKN100=



000
FTUS42 KJAX 021428 AAA
TAFSSI
TAF AMD
KSSI 021428Z 0214/0312 20008KT P6SM BKN020 OVC030
     FM021700 19007KT P6SM SCT030 BKN200
     FM021900 15008KT P6SM VCSH SCT035 BKN200
     FM022200 16010KT P6SM VCTS SCT035CB SCT100 BKN200
     FM030100 17010KT P6SM SCT040 BKN100=



000
FTUS42 KJAX 021427 AAA
TAFCRG
TAF AMD
KCRG 021427Z 0214/0312 23011KT P6SM SCT025 BKN035
     FM021700 21008KT P6SM SCT030 BKN200
     FM021900 15010KT P6SM SCT035 BKN200
     FM022300 15011KT P6SM VCTS SCT050CB SCT150 BKN250
     FM030100 18007KT P6SM SCT040 BKN100=



000
FTUS42 KJAX 021120
TAFCRG
TAF
KCRG 021120Z 0212/0312 17005KT P6SM FEW020 BKN250
     FM021400 21008KT P6SM SCT030 BKN200
     FM021800 15010KT P6SM SCT035 BKN200
     FM022300 15011KT P6SM VCTS SCT050CB SCT150 BKN250
     FM030100 18007KT P6SM SCT040 BKN100=



000
FTUS42 KJAX 021120
TAFGNV
TAF
KGNV 021120Z 0212/0312 15004KT P6SM FEW030 BKN250
     FM021400 18007KT P6SM SCT040 BKN200
     FM022000 21008KT P6SM BKN050
     FM030300 18003KT P6SM SCT050 BKN200=



000
FTUS42 KJAX 021120
TAFJAX
TAF
KJAX 021120Z 0212/0312 17006KT P6SM FEW020 SCT150 BKN250
     FM021400 21008KT P6SM SCT035 BKN200
     FM021900 15010KT P6SM SCT035 BKN200
     FM022300 16010KT P6SM VCTS SCT050CB SCT150 BKN250
     FM030100 18007KT P6SM SCT040 BKN100=



000
FTUS42 KJAX 021120
TAFSSI
TAF
KSSI 021120Z 0212/0312 17005KT P6SM FEW015 SCT150 BKN250
     FM021300 19007KT P6SM SCT030 BKN200
     FM021700 15008KT P6SM VCSH SCT035 BKN200
     FM022200 16010KT P6SM VCTS SCT035CB SCT100 BKN200
     FM030100 17010KT P6SM SCT040 BKN100=



000
FTUS42 KJAX 020953 AAA
TAFGNV
TAF AMD
KGNV 020953Z 0210/0306 14004KT P6SM FEW030 BKN250
      TEMPO 0210/0211 6SM BR FEW007 SCT012
     FM021400 18007KT P6SM SCT040 BKN200
     FM022000 21008KT P6SM BKN050=



000
FTUS42 KJAX 020905 AAB
TAFJAX
TAF AMD
KJAX 020905Z 0209/0306 17006KT P6SM FEW015 BKN250
     FM021400 21008KT P6SM SCT035 BKN200
     FM021900 15010KT P6SM SCT035 BKN200
     FM030000 16007KT P6SM FEW050 SCT150 BKN250=



000
FTUS42 KJAX 020701 AAA
TAFJAX
TAF AMD
KJAX 020701Z 0207/0306 17006KT P6SM SCT014 BKN250
      TEMPO 0207/0211 FEW008 BKN014
     FM021400 21008KT P6SM SCT035 BKN200
     FM021900 15010KT P6SM SCT035 BKN200
     FM030000 16007KT P6SM FEW050 SCT150 BKN250=



000
FTUS42 KJAX 020532
TAFGNV
TAF
KGNV 020532Z 0206/0306 14004KT P6SM FEW030 BKN250
      TEMPO 0209/0211 5SM BR SCT012
     FM021400 18007KT P6SM SCT040 BKN200
     FM022000 21008KT P6SM BKN050=



000
FTUS42 KJAX 020532
TAFSSI
TAF
KSSI 020532Z 0206/0306 17004KT P6SM FEW015 SCT150 BKN250
     FM021300 19007KT P6SM SCT030 BKN200
     FM021700 15008KT P6SM VCSH SCT035 BKN200
     FM030000 16010KT P6SM FEW030 SCT100 BKN200=



000
FTUS42 KJAX 020532
TAFJAX
TAF
KJAX 020532Z 0206/0306 16006KT P6SM FEW015 BKN250
     FM020900 17003KT P6SM SCT010 BKN250
     FM021400 21008KT P6SM SCT035 BKN200
     FM021900 15010KT P6SM SCT035 BKN200
     FM030000 16007KT P6SM FEW050 SCT150 BKN250=



000
FTUS42 KJAX 020532
TAFCRG
TAF
KCRG 020532Z 0206/0306 16006KT P6SM FEW015 BKN250
     FM020900 17003KT P6SM SCT010 BKN250
     FM021400 21008KT P6SM SCT030 BKN200
     FM021800 15010KT P6SM SCT035 BKN200
     FM030000 17007KT P6SM FEW050 SCT150 BKN250=



000
FTUS42 KJAX 012320
TAFSSI
TAF
KSSI 012320Z 0200/0224 12011KT P6SM SCT100 BKN250
     FM020200 15005KT P6SM BKN250
     FM021400 16010KT P6SM SCT035 BKN200=



000
FTUS42 KJAX 012320
TAFGNV
TAF
KGNV 012320Z 0200/0224 12008KT P6SM SCT050 SCT250
     FM020200 15003KT P6SM BKN250
      TEMPO 0207/0211 4SM BR
     FM021400 16010KT P6SM SCT035 BKN200=



000
FTUS42 KJAX 012320
TAFCRG
TAF
KCRG 012320Z 0200/0224 12011KT P6SM SCT250
     FM020200 15005KT P6SM BKN250
     FM021400 16010KT P6SM SCT035 BKN200=



000
FTUS42 KJAX 012320
TAFJAX
TAF
KJAX 012320Z 0200/0224 12010KT P6SM SCT250
     FM020200 15004KT P6SM BKN250
     FM021400 16010KT P6SM SCT035 BKN200=



000
FTUS42 KJAX 011720
TAFSSI
TAF
KSSI 011720Z 0118/0218 14012KT P6SM VCSH SCT040 BKN250
     FM020200 15007KT P6SM SCT050 SCT250
     FM020800 18006KT P6SM SCT050 SCT250=



000
FTUS42 KJAX 011720
TAFCRG
TAF
KCRG 011720Z 0118/0218 11012KT P6SM SCT045 BKN250
     FM020300 15006KT P6SM FEW050 SCT250
     FM020800 18003KT P6SM FEW010 SCT250=



000
FTUS42 KJAX 011720
TAFJAX
TAF
KJAX 011720Z 0118/0218 14010KT P6SM SCT040 BKN250
     FM011900 12012KT P6SM SCT040 BKN250
     FM020300 17003KT P6SM FEW040 SCT250
     FM020800 18003KT P6SM FEW010 SCT250=



000
FTUS42 KJAX 011720
TAFGNV
TAF
KGNV 011720Z 0118/0218 12011KT P6SM SCT020 BKN250
     FM012100 12011KT P6SM VCSH SCT050 BKN250
     FM020300 14003KT P6SM FEW050 SCT250
     FM020800 VRB03KT 4SM BR SCT008 SCT250=



000
FTUS42 KJAX 011644 AAB
TAFSSI
TAF AMD
KSSI 011644Z 0117/0212 14012KT P6SM VCSH FEW050 BKN250
     FM020200 15007KT P6SM FEW050 SCT250=



000
FTUS42 KJAX 011452 AAA
TAFSSI
TAF AMD
KSSI 011452Z 0115/0212 16008KT P6SM SCT060 BKN250
     FM011700 13012KT P6SM FEW050 BKN250
     FM020200 15007KT P6SM FEW050 SCT250=



000
FTUS42 KJAX 011451 AAA
TAFGNV
TAF AMD
KGNV 011451Z 0115/0212 14011KT P6SM SCT020 BKN250
     FM012100 12011KT P6SM VCSH SCT050 BKN250
     FM020300 14003KT P6SM FEW050 SCT250
     FM020800 VRB03KT 5SM BR FEW010 SCT250=



000
FTUS42 KJAX 011451 AAA
TAFGNV
TAF AMD
KGNV 011451Z 0115/0212 14011KT P6SM SCT020 BKN250
     FM012100 12011KT P6SM VCSH SCT050 BKN250
     FM020300 14003KT P6SM FEW050 SCT250
     FM020800 VRB03KT 5SM BR FEW010 SCT250=



000
FTUS42 KJAX 011451 AAA
TAFCRG
TAF AMD
KCRG 011451Z 0115/0212 16010KT P6SM SCT025 SCT100 BKN250
     FM011800 12012KT P6SM FEW050 BKN250
     FM020300 15006KT P6SM FEW050 SCT250=



000
FTUS42 KJAX 011451 AAA
TAFCRG
TAF AMD
KCRG 011451Z 0115/0212 16010KT P6SM SCT025 SCT100 BKN250
     FM011800 12012KT P6SM FEW050 BKN250
     FM020300 15006KT P6SM FEW050 SCT250=



000
FTUS42 KJAX 011450 AAB
TAFJAX
TAF AMD
KJAX 011450Z 0115/0212 17012KT P6SM FEW025 SCT100 BKN250
     FM011900 12012KT P6SM SCT050 BKN250
     FM020300 16003KT P6SM FEW050 SCT250=



000
FTUS42 KJAX 011450 AAB
TAFJAX
TAF AMD
KJAX 011450Z 0115/0212 17012KT P6SM FEW025 SCT100 BKN250
     FM011900 12012KT P6SM SCT050 BKN250
     FM020300 16003KT P6SM FEW050 SCT250=



000
FTUS42 KJAX 011138
TAFCRG
TAF
KCRG 011138Z 0112/0212 16007KT P6SM FEW050 SCT080 BKN250
     FM011800 12012KT P6SM FEW050 BKN250
     FM020300 15006KT P6SM FEW050 SCT250=



000
FTUS42 KJAX 011138
TAFJAX
TAF
KJAX 011138Z 0112/0212 16007KT P6SM FEW050 SCT080 BKN250
     FM011900 12011KT P6SM SCT050 BKN250
     FM020300 16003KT P6SM FEW050 SCT250=



000
FTUS42 KJAX 011138
TAFSSI
TAF
KSSI 011138Z 0112/0212 16008KT P6SM FEW050 SCT080 BKN250
     FM011700 13012KT P6SM FEW050 BKN250
     FM020200 15007KT P6SM FEW050 SCT250=



000
FTUS42 KJAX 011138
TAFGNV
TAF
KGNV 011138Z 0112/0212 14007KT P6SM SCT050 BKN250
     FM012100 12011KT P6SM VCSH SCT050 BKN250
     FM020300 14003KT P6SM FEW050 SCT250
     FM020800 VRB03KT 5SM BR FEW010 SCT250=



000
FTUS42 KJAX 011138
TAFJAX
TAF
KJAX 011138Z 0112/0212 16007KT P6SM FEW050 SCT080 BKN250
     FM011900 12011KT P6SM SCT050 BKN250
     FM020300 16003KT P6SM FEW050 SCT250=



000
FTUS42 KJAX 011138
TAFCRG
TAF
KCRG 011138Z 0112/0212 16007KT P6SM FEW050 SCT080 BKN250
     FM011800 12012KT P6SM FEW050 BKN250
     FM020300 15006KT P6SM FEW050 SCT250=



000
FTUS42 KJAX 011138
TAFSSI
TAF
KSSI 011138Z 0112/0212 16008KT P6SM FEW050 SCT080 BKN250
     FM011700 13012KT P6SM FEW050 BKN250
     FM020200 15007KT P6SM FEW050 SCT250=



000
FTUS42 KJAX 011138
TAFGNV
TAF
KGNV 011138Z 0112/0212 14007KT P6SM SCT050 BKN250
     FM012100 12011KT P6SM VCSH SCT050 BKN250
     FM020300 14003KT P6SM FEW050 SCT250
     FM020800 VRB03KT 5SM BR FEW010 SCT250=



000
FTUS42 KJAX 011000 AAA
TAFGNV
TAF AMD
KGNV 011000Z 0110/0206 13005KT 6SM BR FEW040 SCT250
     FM011400 17007KT P6SM SCT050 SCT250
     FM012100 10008KT P6SM BKN050 BKN250
     FM020300 12003KT P6SM FEW050 SCT250=



000
FTUS42 KJAX 010524
TAFSSI
TAF
KSSI 010524Z 0106/0206 14005KT P6SM SCT050 SCT250
     FM011400 16010KT P6SM BKN050
     FM011800 13009KT P6SM SCT050 SCT250=



000
FTUS42 KJAX 010524
TAFGNV
TAF
KGNV 010524Z 0106/0206 VRB02KT P6SM SCT050 SCT250
     FM010800 00000KT 5SM BR SCT040 SCT250
     FM011000 00000KT 2SM BR FEW040 SCT250
     FM011400 17007KT P6SM SCT050 SCT250
     FM012100 10008KT P6SM BKN050 BKN250
     FM020300 12003KT P6SM FEW050 SCT250=



000
FTUS42 KJAX 010524
TAFCRG
TAF
KCRG 010524Z 0106/0206 15005KT P6SM FEW060 SCT250
     FM011400 17008KT P6SM BKN050
     FM011900 12008KT P6SM SCT050 BKN250
     FM020300 16003KT P6SM FEW050 SCT250=



000
FTUS42 KJAX 010524
TAFJAX
TAF
KJAX 010524Z 0106/0206 15005KT P6SM FEW060 SCT250
     FM011400 18008KT P6SM BKN050
     FM012000 12008KT P6SM SCT050 BKN250
     FM020300 15003KT P6SM FEW050 SCT250=



000
FTUS42 KJAX 010524
TAFGNV
TAF
KGNV 010524Z 0106/0206 VRB02KT P6SM SCT050 SCT250
     FM010800 00000KT 5SM BR SCT040 SCT250
     FM011000 00000KT 2SM BR FEW040 SCT250
     FM011400 17007KT P6SM SCT050 SCT250
     FM012100 10008KT P6SM BKN050 BKN250
     FM020300 12003KT P6SM FEW050 SCT250=



000
FTUS42 KJAX 010524
TAFSSI
TAF
KSSI 010524Z 0106/0206 14005KT P6SM SCT050 SCT250
     FM011400 16010KT P6SM BKN050
     FM011800 13009KT P6SM SCT050 SCT250=



000
FTUS42 KJAX 010524
TAFCRG
TAF
KCRG 010524Z 0106/0206 15005KT P6SM FEW060 SCT250
     FM011400 17008KT P6SM BKN050
     FM011900 12008KT P6SM SCT050 BKN250
     FM020300 16003KT P6SM FEW050 SCT250=



000
FTUS42 KJAX 010524
TAFJAX
TAF
KJAX 010524Z 0106/0206 15005KT P6SM FEW060 SCT250
     FM011400 18008KT P6SM BKN050
     FM012000 12008KT P6SM SCT050 BKN250
     FM020300 15003KT P6SM FEW050 SCT250=



    US Dept of Commerce
    National Oceanic and Atmospheric Administration
    National Weather Service
    1325 East West Highway
    Silver Spring, MD 20910
    Page Author: NWS Internet Services Team
Disclaimer
Information Quality
Credits
Glossary
Privacy Policy
Freedom of Information Act (FOIA)
About Us
Career Opportunities